sensor_id;sensor_type;location;lat;lon;timestamp;pressure;altitude;pressure_sealevel;temperature;humidity
68169;BME280;54981;50.206;15.978;2023-05-15T00:00:51;98264.78;;;11.33;100.00
68169;BME280;54981;50.206;15.978;2023-05-15T00:03:23;98269.59;;;11.27;100.00
68169;BME280;54981;50.206;15.978;2023-05-15T00:05:53;98261.50;;;11.29;100.00
68169;BME280;54981;50.206;15.978;2023-05-15T00:08:24;98261.50;;;11.29;100.00
68169;BME280;54981;50.206;15.978;2023-05-15T00:10:54;98260.84;;;11.25;100.00
68169;BME280;54981;50.206;15.978;2023-05-15T00:13:25;98247.97;;;11.32;100.00
68169;BME280;54981;50.206;15.978;2023-05-15T00:15:55;98250.53;;;11.34;100.00
68169;BME280;54981;50.206;15.978;2023-05-15T00:18:25;98245.94;;;11.36;100.00
68169;BME280;54981;50.206;15.978;2023-05-15T00:20:56;98242.00;;;11.28;100.00
68169;BME280;54981;50.206;15.978;2023-05-15T00:23:26;98237.94;;;11.23;100.00
68169;BME280;54981;50.206;15.978;2023-05-15T00:25:57;98234.09;;;11.27;100.00
68169;BME280;54981;50.206;15.978;2023-05-15T00:28:27;98227.28;;;11.23;100.00
68169;BME280;54981;50.206;15.978;2023-05-15T00:30:57;98229.09;;;11.22;100.00
68169;BME280;54981;50.206;15.978;2023-05-15T00:33:28;98221.09;;;11.22;100.00
68169;BME280;54981;50.206;15.978;2023-05-15T00:35:58;98227.19;;;11.24;100.00
68169;BME280;54981;50.206;15.978;2023-05-15T00:38:29;98223.22;;;11.30;100.00
68169;BME280;54981;50.206;15.978;2023-05-15T00:41:03;98226.44;;;11.22;100.00
68169;BME280;54981;50.206;15.978;2023-05-15T00:43:37;98214.06;;;11.21;100.00
68169;BME280;54981;50.206;15.978;2023-05-15T00:46:08;98215.47;;;11.14;100.00
68169;BME280;54981;50.206;15.978;2023-05-15T00:48:40;98208.09;;;11.18;100.00
68169;BME280;54981;50.206;15.978;2023-05-15T00:51:11;98200.63;;;11.10;100.00
68169;BME280;54981;50.206;15.978;2023-05-15T00:53:42;98207.88;;;11.08;100.00
68169;BME280;54981;50.206;15.978;2023-05-15T00:56:13;98201.69;;;11.20;100.00
68169;BME280;54981;50.206;15.978;2023-05-15T00:58:46;98204.59;;;11.17;100.00
68169;BME280;54981;50.206;15.978;2023-05-15T01:01:17;98208.09;;;11.05;100.00
68169;BME280;54981;50.206;15.978;2023-05-15T01:03:48;98202.78;;;11.05;100.00
68169;BME280;54981;50.206;15.978;2023-05-15T01:06:18;98208.84;;;11.07;100.00
68169;BME280;54981;50.206;15.978;2023-05-15T01:08:50;98201.03;;;11.04;100.00
68169;BME280;54981;50.206;15.978;2023-05-15T01:11:24;98201.91;;;11.04;100.00
68169;BME280;54981;50.206;15.978;2023-05-15T01:13:56;98197.66;;;11.02;100.00
68169;BME280;54981;50.206;15.978;2023-05-15T01:16:27;98197.84;;;10.99;100.00
68169;BME280;54981;50.206;15.978;2023-05-15T01:18:57;98192.97;;;11.05;100.00
68169;BME280;54981;50.206;15.978;2023-05-15T01:29:23;98182.09;;;10.96;100.00
68169;BME280;54981;50.206;15.978;2023-05-15T01:32:01;98181.03;;;10.98;100.00
68169;BME280;54981;50.206;15.978;2023-05-15T01:34:53;98183.28;;;11.04;100.00
68169;BME280;54981;50.206;15.978;2023-05-15T01:37:26;98181.03;;;10.98;100.00
68169;BME280;54981;50.206;15.978;2023-05-15T01:40:02;98184.84;;;10.94;100.00
68169;BME280;54981;50.206;15.978;2023-05-15T01:42:36;98178.88;;;10.91;100.00
68169;BME280;54981;50.206;15.978;2023-05-15T01:45:10;98182.84;;;10.98;100.00
68169;BME280;54981;50.206;15.978;2023-05-15T01:47:43;98181.25;;;10.95;100.00
68169;BME280;54981;50.206;15.978;2023-05-15T01:50:17;98176.75;;;10.96;100.00
68169;BME280;54981;50.206;15.978;2023-05-15T01:52:53;98177.59;;;10.96;100.00
68169;BME280;54981;50.206;15.978;2023-05-15T01:55:26;98169.09;;;10.91;100.00
68169;BME280;54981;50.206;15.978;2023-05-15T01:57:59;98159.28;;;10.92;100.00
68169;BME280;54981;50.206;15.978;2023-05-15T02:00:31;98164.41;;;10.95;100.00
68169;BME280;54981;50.206;15.978;2023-05-15T02:03:04;98162.59;;;10.95;100.00
68169;BME280;54981;50.206;15.978;2023-05-15T02:05:35;98152.47;;;11.00;100.00
68169;BME280;54981;50.206;15.978;2023-05-15T02:08:06;98155.22;;;10.99;100.00
68169;BME280;54981;50.206;15.978;2023-05-15T02:10:38;98147.16;;;11.00;100.00
68169;BME280;54981;50.206;15.978;2023-05-15T02:13:10;98147.25;;;10.99;100.00
68169;BME280;54981;50.206;15.978;2023-05-15T02:15:41;98141.81;;;11.00;100.00
68169;BME280;54981;50.206;15.978;2023-05-15T02:18:12;98138.53;;;10.97;100.00
68169;BME280;54981;50.206;15.978;2023-05-15T02:20:43;98130.31;;;11.00;100.00
68169;BME280;54981;50.206;15.978;2023-05-15T02:23:13;98124.88;;;11.01;100.00
68169;BME280;54981;50.206;15.978;2023-05-15T02:25:54;98125.84;;;11.00;100.00
68169;BME280;54981;50.206;15.978;2023-05-15T02:28:33;98120.50;;;11.00;100.00
68169;BME280;54981;50.206;15.978;2023-05-15T02:35:01;98112.41;;;11.02;100.00
68169;BME280;54981;50.206;15.978;2023-05-15T02:37:10;98098.97;;;11.03;100.00
68169;BME280;54981;50.206;15.978;2023-05-15T02:39:43;98100.69;;;11.04;100.00
68169;BME280;54981;50.206;15.978;2023-05-15T02:42:15;98099.81;;;11.04;100.00
68169;BME280;54981;50.206;15.978;2023-05-15T02:44:47;98096.44;;;11.02;100.00
68169;BME280;54981;50.206;15.978;2023-05-15T02:47:18;98095.47;;;11.03;100.00
68169;BME280;54981;50.206;15.978;2023-05-15T02:49:50;98096.22;;;11.05;100.00
68169;BME280;54981;50.206;15.978;2023-05-15T02:52:22;98099.63;;;11.07;100.00
68169;BME280;54981;50.206;15.978;2023-05-15T02:54:53;98091.63;;;11.07;100.00
68169;BME280;54981;50.206;15.978;2023-05-15T02:57:23;98081.72;;;11.09;100.00
68169;BME280;54981;50.206;15.978;2023-05-15T02:59:54;98080.75;;;11.10;100.00
68169;BME280;54981;50.206;15.978;2023-05-15T03:02:26;98075.66;;;11.07;100.00
68169;BME280;54981;50.206;15.978;2023-05-15T03:04:57;98082.81;;;11.06;100.00
68169;BME280;54981;50.206;15.978;2023-05-15T03:07:27;98080.00;;;11.08;100.00
68169;BME280;54981;50.206;15.978;2023-05-15T03:09:58;98083.66;;;11.07;100.00
68169;BME280;54981;50.206;15.978;2023-05-15T03:12:28;98084.59;;;11.06;100.00
68169;BME280;54981;50.206;15.978;2023-05-15T03:14:59;98084.59;;;11.06;100.00
68169;BME280;54981;50.206;15.978;2023-05-15T03:17:30;98088.97;;;11.07;100.00
68169;BME280;54981;50.206;15.978;2023-05-15T03:20:01;98080.84;;;11.08;100.00
68169;BME280;54981;50.206;15.978;2023-05-15T03:22:31;98074.69;;;11.08;100.00
68169;BME280;54981;50.206;15.978;2023-05-15T03:25:02;98075.53;;;11.08;100.00
68169;BME280;54981;50.206;15.978;2023-05-15T03:27:32;98071.91;;;11.09;100.00
68169;BME280;54981;50.206;15.978;2023-05-15T03:30:03;98069.25;;;11.09;100.00
68169;BME280;54981;50.206;15.978;2023-05-15T03:32:34;98061.13;;;11.11;100.00
68169;BME280;54981;50.206;15.978;2023-05-15T03:35:05;98067.22;;;11.13;100.00
68169;BME280;54981;50.206;15.978;2023-05-15T03:37:35;98056.56;;;11.13;100.00
68169;BME280;54981;50.206;15.978;2023-05-15T03:40:06;98059.34;;;11.12;100.00
68169;BME280;54981;50.206;15.978;2023-05-15T03:42:37;98058.69;;;11.08;100.00
68169;BME280;54981;50.206;15.978;2023-05-15T03:45:08;98062.34;;;11.07;100.00
68169;BME280;54981;50.206;15.978;2023-05-15T03:47:38;98064.03;;;11.08;100.00
68169;BME280;54981;50.206;15.978;2023-05-15T03:50:09;98067.53;;;11.08;100.00
68169;BME280;54981;50.206;15.978;2023-05-15T03:52:39;98055.09;;;11.09;100.00
68169;BME280;54981;50.206;15.978;2023-05-15T03:55:10;98059.44;;;11.10;100.00
68169;BME280;54981;50.206;15.978;2023-05-15T03:57:41;98057.53;;;11.12;100.00
68169;BME280;54981;50.206;15.978;2023-05-15T04:00:12;98057.53;;;11.12;100.00
68169;BME280;54981;50.206;15.978;2023-05-15T04:02:42;98053.03;;;11.13;100.00
68169;BME280;54981;50.206;15.978;2023-05-15T04:05:13;98061.88;;;11.13;100.00
68169;BME280;54981;50.206;15.978;2023-05-15T04:07:43;98061.88;;;11.13;100.00
68169;BME280;54981;50.206;15.978;2023-05-15T04:10:14;98055.72;;;11.13;100.00
68169;BME280;54981;50.206;15.978;2023-05-15T04:12:44;98055.59;;;11.14;100.00
68169;BME280;54981;50.206;15.978;2023-05-15T04:17:51;98056.03;;;11.21;100.00
68169;BME280;54981;50.206;15.978;2023-05-15T04:20:23;98051.31;;;11.24;100.00
68169;BME280;54981;50.206;15.978;2023-05-15T04:22:54;98055.66;;;11.25;100.00
68169;BME280;54981;50.206;15.978;2023-05-15T04:25:24;98042.34;;;11.25;100.00
68169;BME280;54981;50.206;15.978;2023-05-15T04:27:54;98051.81;;;11.29;100.00
68169;BME280;54981;50.206;15.978;2023-05-15T04:30:25;98050.66;;;11.34;100.00
68169;BME280;54981;50.206;15.978;2023-05-15T04:32:55;98040.09;;;11.32;100.00
68169;BME280;54981;50.206;15.978;2023-05-15T04:35:26;98048.09;;;11.32;100.00
68169;BME280;54981;50.206;15.978;2023-05-15T04:37:56;98051.59;;;11.33;100.00
68169;BME280;54981;50.206;15.978;2023-05-15T04:40:27;98046.06;;;11.36;100.00
68169;BME280;54981;50.206;15.978;2023-05-15T04:42:57;98052.34;;;11.35;100.00
68169;BME280;54981;50.206;15.978;2023-05-15T04:45:27;98048.59;;;11.37;100.00
68169;BME280;54981;50.206;15.978;2023-05-15T04:47:58;98046.81;;;11.38;100.00
68169;BME280;54981;50.206;15.978;2023-05-15T04:50:28;98041.25;;;11.41;100.00
68169;BME280;54981;50.206;15.978;2023-05-15T04:52:58;98038.44;;;11.42;100.00
68169;BME280;54981;50.206;15.978;2023-05-15T04:55:29;98040.19;;;11.43;100.00
68169;BME280;54981;50.206;15.978;2023-05-15T04:58:00;98049.25;;;11.41;100.00
68169;BME280;54981;50.206;15.978;2023-05-15T05:00:31;98042.19;;;11.40;100.00
68169;BME280;54981;50.206;15.978;2023-05-15T05:03:01;98035.19;;;11.39;100.00
68169;BME280;54981;50.206;15.978;2023-05-15T05:05:31;98040.41;;;11.40;100.00
68169;BME280;54981;50.206;15.978;2023-05-15T05:08:02;98033.50;;;11.38;100.00
68169;BME280;54981;50.206;15.978;2023-05-15T05:10:32;98026.00;;;11.43;100.00
68169;BME280;54981;50.206;15.978;2023-05-15T05:13:02;98028.66;;;11.43;100.00
68169;BME280;54981;50.206;15.978;2023-05-15T05:15:33;98028.44;;;11.46;100.00
68169;BME280;54981;50.206;15.978;2023-05-15T05:18:04;98030.25;;;11.45;100.00
68169;BME280;54981;50.206;15.978;2023-05-15T05:20:35;98032.78;;;11.47;100.00
68169;BME280;54981;50.206;15.978;2023-05-15T05:23:05;98020.22;;;11.49;100.00
68169;BME280;54981;50.206;15.978;2023-05-15T05:25:36;98023.63;;;11.51;100.00
68169;BME280;54981;50.206;15.978;2023-05-15T05:28:06;98019.88;;;11.54;100.00
68169;BME280;54981;50.206;15.978;2023-05-15T05:30:36;98013.59;;;11.55;100.00
68169;BME280;54981;50.206;15.978;2023-05-15T05:33:07;98017.72;;;11.59;100.00
68169;BME280;54981;50.206;15.978;2023-05-15T05:35:37;98022.72;;;11.63;100.00
68169;BME280;54981;50.206;15.978;2023-05-15T05:38:07;98016.09;;;11.69;100.00
68169;BME280;54981;50.206;15.978;2023-05-15T05:40:38;98016.47;;;11.76;100.00
68169;BME280;54981;50.206;15.978;2023-05-15T05:43:08;98010.78;;;11.80;100.00
68169;BME280;54981;50.206;15.978;2023-05-15T05:45:39;98012.59;;;11.80;100.00
68169;BME280;54981;50.206;15.978;2023-05-15T05:48:10;98001.28;;;11.89;100.00
68169;BME280;54981;50.206;15.978;2023-05-15T05:50:40;98002.75;;;11.93;100.00
68169;BME280;54981;50.206;15.978;2023-05-15T05:53:11;98004.69;;;12.02;100.00
68169;BME280;54981;50.206;15.978;2023-05-15T05:55:41;97994.06;;;12.13;100.00
68169;BME280;54981;50.206;15.978;2023-05-15T05:58:12;97997.72;;;12.24;100.00
68169;BME280;54981;50.206;15.978;2023-05-15T06:00:42;97991.94;;;12.30;100.00
68169;BME280;54981;50.206;15.978;2023-05-15T06:03:13;98001.41;;;12.34;100.00
68169;BME280;54981;50.206;15.978;2023-05-15T06:05:43;97995.84;;;12.48;100.00
68169;BME280;54981;50.206;15.978;2023-05-15T06:08:14;97995.38;;;12.66;100.00
68169;BME280;54981;50.206;15.978;2023-05-15T06:10:44;97992.56;;;12.78;100.00
68169;BME280;54981;50.206;15.978;2023-05-15T06:13:15;97988.56;;;12.84;100.00
68169;BME280;54981;50.206;15.978;2023-05-15T06:15:45;97990.28;;;12.85;100.00
68169;BME280;54981;50.206;15.978;2023-05-15T06:18:16;97982.63;;;12.81;100.00
68169;BME280;54981;50.206;15.978;2023-05-15T06:20:46;97986.97;;;12.82;100.00
68169;BME280;54981;50.206;15.978;2023-05-15T06:23:17;97987.59;;;12.96;100.00
68169;BME280;54981;50.206;15.978;2023-05-15T06:25:47;97985.41;;;12.79;100.00
68169;BME280;54981;50.206;15.978;2023-05-15T06:28:17;97978.84;;;12.72;100.00
68169;BME280;54981;50.206;15.978;2023-05-15T06:30:48;97985.19;;;12.82;100.00
68169;BME280;54981;50.206;15.978;2023-05-15T06:33:19;97983.72;;;12.78;100.00
68169;BME280;54981;50.206;15.978;2023-05-15T06:35:51;97980.44;;;12.86;100.00
68169;BME280;54981;50.206;15.978;2023-05-15T06:38:21;97983.09;;;12.97;100.00
68169;BME280;54981;50.206;15.978;2023-05-15T06:40:52;97980.91;;;13.02;100.00
68169;BME280;54981;50.206;15.978;2023-05-15T06:43:22;97976.19;;;12.94;100.00
68169;BME280;54981;50.206;15.978;2023-05-15T06:45:52;97973.47;;;13.06;100.00
68169;BME280;54981;50.206;15.978;2023-05-15T06:48:23;97969.97;;;13.05;100.00
68169;BME280;54981;50.206;15.978;2023-05-15T06:50:53;97962.78;;;13.06;100.00
68169;BME280;54981;50.206;15.978;2023-05-15T06:53:24;97966.06;;;13.09;100.00
68169;BME280;54981;50.206;15.978;2023-05-15T06:55:54;97965.44;;;13.17;100.00
68169;BME280;54981;50.206;15.978;2023-05-15T06:58:24;97970.31;;;13.12;100.00
68169;BME280;54981;50.206;15.978;2023-05-15T07:00:55;97962.03;;;13.26;100.00
68169;BME280;54981;50.206;15.978;2023-05-15T07:03:25;97960.31;;;13.36;100.00
68169;BME280;54981;50.206;15.978;2023-05-15T07:05:55;97959.94;;;13.41;100.00
68169;BME280;54981;50.206;15.978;2023-05-15T07:08:26;97960.78;;;13.41;100.00
68169;BME280;54981;50.206;15.978;2023-05-15T07:10:56;97961.53;;;13.32;100.00
68169;BME280;54981;50.206;15.978;2023-05-15T07:13:27;97957.19;;;13.31;100.00
68169;BME280;54981;50.206;15.978;2023-05-15T07:15:57;97957.38;;;13.39;100.00
68169;BME280;54981;50.206;15.978;2023-05-15T07:18:28;97957.97;;;13.54;100.00
68169;BME280;54981;50.206;15.978;2023-05-15T07:20:59;97953.31;;;13.56;100.00
68169;BME280;54981;50.206;15.978;2023-05-15T07:23:29;97941.78;;;13.56;100.00
68169;BME280;54981;50.206;15.978;2023-05-15T07:26:00;97951.97;;;13.62;100.00
68169;BME280;54981;50.206;15.978;2023-05-15T07:28:30;97945.19;;;13.58;100.00
68169;BME280;54981;50.206;15.978;2023-05-15T07:31:00;97953.91;;;13.71;100.00
68169;BME280;54981;50.206;15.978;2023-05-15T07:33:31;97954.34;;;13.76;100.00
68169;BME280;54981;50.206;15.978;2023-05-15T07:36:01;97946.09;;;13.68;100.00
68169;BME280;54981;50.206;15.978;2023-05-15T07:38:31;97944.38;;;13.78;100.00
68169;BME280;54981;50.206;15.978;2023-05-15T07:41:02;97944.03;;;13.72;100.00
68169;BME280;54981;50.206;15.978;2023-05-15T07:43:32;97935.81;;;13.84;100.00
68169;BME280;54981;50.206;15.978;2023-05-15T07:46:02;97935.38;;;14.00;100.00
68169;BME280;54981;50.206;15.978;2023-05-15T07:48:33;97933.84;;;14.28;100.00
68169;BME280;54981;50.206;15.978;2023-05-15T07:51:03;97926.88;;;14.47;100.00
68169;BME280;54981;50.206;15.978;2023-05-15T07:53:34;97927.69;;;14.59;100.00
68169;BME280;54981;50.206;15.978;2023-05-15T07:56:04;97921.13;;;14.73;100.00
68169;BME280;54981;50.206;15.978;2023-05-15T07:58:35;97936.56;;;14.59;100.00
68169;BME280;54981;50.206;15.978;2023-05-15T08:01:07;97931.84;;;14.52;100.00
68169;BME280;54981;50.206;15.978;2023-05-15T08:03:37;97937.22;;;14.31;100.00
68169;BME280;54981;50.206;15.978;2023-05-15T08:06:08;97933.78;;;14.19;100.00
68169;BME280;54981;50.206;15.978;2023-05-15T08:08:38;97945.81;;;14.03;100.00
68169;BME280;54981;50.206;15.978;2023-05-15T08:11:08;97944.28;;;13.90;100.00
68169;BME280;54981;50.206;15.978;2023-05-15T08:13:39;97947.06;;;13.78;100.00
68169;BME280;54981;50.206;15.978;2023-05-15T08:16:09;97945.84;;;13.92;100.00
68169;BME280;54981;50.206;15.978;2023-05-15T08:18:39;97942.47;;;13.69;100.00
68169;BME280;54981;50.206;15.978;2023-05-15T08:21:10;97940.03;;;13.66;100.00
68169;BME280;54981;50.206;15.978;2023-05-15T08:23:40;97934.22;;;13.61;100.00
68169;BME280;54981;50.206;15.978;2023-05-15T08:26:11;97941.03;;;13.65;100.00
68169;BME280;54981;50.206;15.978;2023-05-15T08:28:41;97936.44;;;13.56;100.00
68169;BME280;54981;50.206;15.978;2023-05-15T08:31:11;97931.75;;;13.69;100.00
68169;BME280;54981;50.206;15.978;2023-05-15T08:33:42;97938.66;;;13.51;100.00
68169;BME280;54981;50.206;15.978;2023-05-15T08:36:12;97942.03;;;13.53;100.00
68169;BME280;54981;50.206;15.978;2023-05-15T08:38:43;97949.88;;;13.45;100.00
68169;BME280;54981;50.206;15.978;2023-05-15T08:41:24;97941.75;;;13.35;100.00
68169;BME280;54981;50.206;15.978;2023-05-15T08:43:57;97945.00;;;13.38;100.00
68169;BME280;54981;50.206;15.978;2023-05-15T08:46:28;97947.09;;;13.35;100.00
68169;BME280;54981;50.206;15.978;2023-05-15T08:49:06;97956.53;;;13.39;100.00
68169;BME280;54981;50.206;15.978;2023-05-15T08:51:40;97953.50;;;13.43;100.00
68169;BME280;54981;50.206;15.978;2023-05-15T08:54:11;97955.22;;;13.45;100.00
68169;BME280;54981;50.206;15.978;2023-05-15T08:56:42;97958.16;;;13.30;100.00
68169;BME280;54981;50.206;15.978;2023-05-15T08:59:12;97958.16;;;13.08;100.00
68169;BME280;54981;50.206;15.978;2023-05-15T09:01:42;97961.56;;;13.10;100.00
68169;BME280;54981;50.206;15.978;2023-05-15T09:04:13;97963.13;;;13.24;100.00
68169;BME280;54981;50.206;15.978;2023-05-15T09:06:44;97962.41;;;13.33;100.00
68169;BME280;54981;50.206;15.978;2023-05-15T09:09:18;97965.66;;;13.25;100.00
68169;BME280;54981;50.206;15.978;2023-05-15T09:11:49;97955.84;;;13.14;100.00
68169;BME280;54981;50.206;15.978;2023-05-15T09:14:20;97963.50;;;13.19;100.00
68169;BME280;54981;50.206;15.978;2023-05-15T09:16:50;97959.13;;;13.29;100.00
68169;BME280;54981;50.206;15.978;2023-05-15T09:19:22;97960.13;;;13.28;100.00
68169;BME280;54981;50.206;15.978;2023-05-15T09:21:52;97968.44;;;13.46;100.00
68169;BME280;54981;50.206;15.978;2023-05-15T09:24:24;97961.31;;;13.68;100.00
68169;BME280;54981;50.206;15.978;2023-05-15T09:27:07;97959.69;;;13.76;100.00
68169;BME280;54981;50.206;15.978;2023-05-15T09:29:38;97963.94;;;13.79;100.00
68169;BME280;54981;50.206;15.978;2023-05-15T09:32:10;97963.88;;;13.90;100.00
68169;BME280;54981;50.206;15.978;2023-05-15T09:34:42;97960.63;;;13.87;100.00
68169;BME280;54981;50.206;15.978;2023-05-15T09:37:30;97965.41;;;13.83;100.00
68169;BME280;54981;50.206;15.978;2023-05-15T09:40:09;97962.88;;;13.70;100.00
68169;BME280;54981;50.206;15.978;2023-05-15T09:42:40;97971.75;;;13.71;100.00
68169;BME280;54981;50.206;15.978;2023-05-15T09:45:16;97966.66;;;13.68;100.00
68169;BME280;54981;50.206;15.978;2023-05-15T09:47:47;97971.75;;;13.71;100.00
68169;BME280;54981;50.206;15.978;2023-05-15T09:50:23;97967.50;;;13.68;100.00
68169;BME280;54981;50.206;15.978;2023-05-15T09:52:57;97965.56;;;13.70;100.00
68169;BME280;54981;50.206;15.978;2023-05-15T09:55:33;97975.31;;;13.60;100.00
68169;BME280;54981;50.206;15.978;2023-05-15T09:58:09;97977.34;;;13.68;100.00
68169;BME280;54981;50.206;15.978;2023-05-15T10:00:41;97973.09;;;13.76;100.00
68169;BME280;54981;50.206;15.978;2023-05-15T10:03:13;97972.88;;;13.89;100.00
68169;BME280;54981;50.206;15.978;2023-05-15T10:05:43;97973.94;;;13.98;100.00
68169;BME280;54981;50.206;15.978;2023-05-15T10:08:15;97970.69;;;14.15;100.00
68169;BME280;54981;50.206;15.978;2023-05-15T10:10:45;97970.81;;;14.14;100.00
68169;BME280;54981;50.206;15.978;2023-05-15T10:13:16;97976.94;;;14.25;100.00
68169;BME280;54981;50.206;15.978;2023-05-15T10:15:47;97979.72;;;14.45;100.00
68169;BME280;54981;50.206;15.978;2023-05-15T10:18:20;97980.19;;;14.50;100.00
68169;BME280;54981;50.206;15.978;2023-05-15T10:20:54;97974.78;;;14.61;100.00
68169;BME280;54981;50.206;15.978;2023-05-15T10:23:27;97972.97;;;14.41;100.00
68169;BME280;54981;50.206;15.978;2023-05-15T10:26:02;97971.56;;;14.46;100.00
68169;BME280;54981;50.206;15.978;2023-05-15T10:28:34;97978.00;;;14.55;100.00
68169;BME280;54981;50.206;15.978;2023-05-15T10:31:05;97974.38;;;14.66;100.00
68169;BME280;54981;50.206;15.978;2023-05-15T10:33:36;97967.06;;;14.68;100.00
68169;BME280;54981;50.206;15.978;2023-05-15T10:36:08;97965.81;;;14.51;100.00
68169;BME280;54981;50.206;15.978;2023-05-15T10:38:39;97970.97;;;14.43;100.00
68169;BME280;54981;50.206;15.978;2023-05-15T10:41:10;97979.72;;;14.14;100.00
68169;BME280;54981;50.206;15.978;2023-05-15T10:43:42;97972.44;;;13.84;100.00
68169;BME280;54981;50.206;15.978;2023-05-15T10:46:14;97983.47;;;13.91;100.00
68169;BME280;54981;50.206;15.978;2023-05-15T10:48:45;97986.88;;;14.14;100.00
68169;BME280;54981;50.206;15.978;2023-05-15T10:51:26;97976.16;;;14.35;100.00
68169;BME280;54981;50.206;15.978;2023-05-15T10:54:00;97984.84;;;14.48;100.00
68169;BME280;54981;50.206;15.978;2023-05-15T10:56:33;97977.91;;;14.66;100.00
68169;BME280;54981;50.206;15.978;2023-05-15T10:59:08;97971.97;;;14.94;100.00
68169;BME280;54981;50.206;15.978;2023-05-15T11:01:39;97968.69;;;14.90;100.00
68169;BME280;54981;50.206;15.978;2023-05-15T11:04:15;97967.94;;;14.78;100.00
68169;BME280;54981;50.206;15.978;2023-05-15T11:06:48;97975.13;;;15.08;100.00
68169;BME280;54981;50.206;15.978;2023-05-15T11:09:33;97968.81;;;15.29;100.00
68169;BME280;54981;50.206;15.978;2023-05-15T11:12:05;97972.13;;;15.62;100.00
68169;BME280;54981;50.206;15.978;2023-05-15T11:14:40;97970.25;;;15.52;100.00
68169;BME280;54981;50.206;15.978;2023-05-15T11:17:12;97966.16;;;15.48;100.00
68169;BME280;54981;50.206;15.978;2023-05-15T11:22:27;97964.44;;;15.28;100.00
68169;BME280;54981;50.206;15.978;2023-05-15T11:25:10;97964.94;;;15.12;100.00
68169;BME280;54981;50.206;15.978;2023-05-15T11:27:43;97971.88;;;15.15;100.00
68169;BME280;54981;50.206;15.978;2023-05-15T11:30:15;97971.00;;;15.04;100.00
68169;BME280;54981;50.206;15.978;2023-05-15T11:32:58;97967.94;;;15.19;100.00
68169;BME280;54981;50.206;15.978;2023-05-15T11:35:45;97959.75;;;15.10;100.00
68169;BME280;54981;50.206;15.978;2023-05-15T11:38:18;97971.38;;;14.90;100.00
68169;BME280;54981;50.206;15.978;2023-05-15T11:43:29;97963.03;;;15.33;100.00
68169;BME280;54981;50.206;15.978;2023-05-15T11:46:09;97976.34;;;15.54;100.00
68169;BME280;54981;50.206;15.978;2023-05-15T11:48:43;97970.84;;;15.66;100.00
68169;BME280;54981;50.206;15.978;2023-05-15T11:51:18;97964.47;;;15.47;100.00
68169;BME280;54981;50.206;15.978;2023-05-15T11:53:50;97968.41;;;15.33;100.00
68169;BME280;54981;50.206;15.978;2023-05-15T11:56:26;97966.97;;;14.79;100.00
68169;BME280;54981;50.206;15.978;2023-05-15T11:58:59;97974.13;;;14.48;100.00
68169;BME280;54981;50.206;15.978;2023-05-15T12:01:38;97974.53;;;14.43;100.00
68169;BME280;54981;50.206;15.978;2023-05-15T12:04:17;97978.50;;;14.49;100.00
68169;BME280;54981;50.206;15.978;2023-05-15T12:06:48;97979.63;;;14.46;100.00
68169;BME280;54981;50.206;15.978;2023-05-15T12:09:18;97981.84;;;14.62;100.00
68169;BME280;54981;50.206;15.978;2023-05-15T12:11:51;97975.94;;;14.99;100.00
68169;BME280;54981;50.206;15.978;2023-05-15T12:14:27;97976.53;;;15.12;100.00
68169;BME280;54981;50.206;15.978;2023-05-15T12:17:02;97982.78;;;15.23;100.00
68169;BME280;54981;50.206;15.978;2023-05-15T12:19:34;97987.56;;;15.29;100.00
68169;BME280;54981;50.206;15.978;2023-05-15T12:22:06;97979.59;;;14.98;100.00
68169;BME280;54981;50.206;15.978;2023-05-15T12:24:37;97989.97;;;14.82;100.00
68169;BME280;54981;50.206;15.978;2023-05-15T12:27:09;97992.09;;;14.88;100.00
68169;BME280;54981;50.206;15.978;2023-05-15T12:29:40;97985.06;;;14.87;100.00
68169;BME280;54981;50.206;15.978;2023-05-15T12:32:11;97986.03;;;15.26;100.00
68169;BME280;54981;50.206;15.978;2023-05-15T12:34:41;97991.84;;;15.41;100.00
68169;BME280;54981;50.206;15.978;2023-05-15T12:37:13;97989.91;;;15.63;100.00
68169;BME280;54981;50.206;15.978;2023-05-15T12:39:53;97983.72;;;15.72;100.00
68169;BME280;54981;50.206;15.978;2023-05-15T12:42:24;97975.66;;;15.91;100.00
68169;BME280;54981;50.206;15.978;2023-05-15T12:44:55;97981.19;;;15.90;100.00
68169;BME280;54981;50.206;15.978;2023-05-15T12:47:26;97981.88;;;15.92;100.00
68169;BME280;54981;50.206;15.978;2023-05-15T12:49:57;97986.25;;;15.64;100.00
68169;BME280;54981;50.206;15.978;2023-05-15T12:52:27;98003.66;;;15.79;100.00
68169;BME280;54981;50.206;15.978;2023-05-15T12:55:01;97988.25;;;15.91;100.00
68169;BME280;54981;50.206;15.978;2023-05-15T12:57:32;97982.03;;;15.90;100.00
68169;BME280;54981;50.206;15.978;2023-05-15T13:00:02;97985.28;;;16.04;100.00
68169;BME280;54981;50.206;15.978;2023-05-15T13:02:33;97984.31;;;15.85;100.00
68169;BME280;54981;50.206;15.978;2023-05-15T13:05:04;97983.97;;;15.59;100.00
68169;BME280;54981;50.206;15.978;2023-05-15T13:07:35;97975.50;;;15.64;100.00
68169;BME280;54981;50.206;15.978;2023-05-15T13:10:07;97971.31;;;15.71;100.00
68169;BME280;54981;50.206;15.978;2023-05-15T13:12:44;97956.31;;;15.68;100.00
68169;BME280;54981;50.206;15.978;2023-05-15T13:18:09;97957.38;;;15.46;100.00
68169;BME280;54981;50.206;15.978;2023-05-15T13:23:15;97944.19;;;15.74;100.00
68169;BME280;54981;50.206;15.978;2023-05-15T13:25:46;97956.03;;;16.01;100.00
68169;BME280;54981;50.206;15.978;2023-05-15T13:28:16;97958.69;;;16.20;100.00